createdAt,value
2023-03-26T00:00:42.738Z,93336.25
2023-03-26T00:05:45.778Z,93334.06
2023-03-26T00:10:47.360Z,93336.06
2023-03-26T00:15:50.181Z,93336.69
2023-03-26T00:20:51.741Z,93331.31
2023-03-26T00:25:53.345Z,93322.38
2023-03-26T00:30:59.791Z,93323.03
2023-03-26T00:36:03.259Z,93330.31
2023-03-26T00:41:10.440Z,93332.41
2023-03-26T00:46:13.748Z,93328.53
2023-03-26T00:51:17.283Z,93321.91
2023-03-26T00:56:19.218Z,93316.13
2023-03-26T01:01:25.080Z,93321.16
2023-03-26T01:06:29.618Z,93308.53
2023-03-26T01:11:34.469Z,93307.44
2023-03-26T01:16:42.045Z,93297.63
2023-03-26T01:21:43.541Z,93291.31
2023-03-26T01:27:11.904Z,93294.06
2023-03-26T01:32:21.170Z,93293.25
2023-03-26T01:37:27.413Z,93269.41
2023-03-26T01:42:37.385Z,93258.41
2023-03-26T01:47:41.935Z,93252.28
2023-03-26T01:52:43.491Z,93247.09
2023-03-26T01:57:59.261Z,93248.16
2023-03-26T02:03:24.243Z,93237.25
2023-03-26T02:08:31.466Z,93228.41
2023-03-26T02:13:34.406Z,93220.28
2023-03-26T02:18:36.234Z,93217.25
2023-03-26T02:23:38.422Z,93210.38
2023-03-26T02:28:41.411Z,93209.63
2023-03-26T02:33:42.852Z,93195.25
2023-03-26T02:38:44.298Z,93182.97
2023-03-26T02:43:47.108Z,93175.13
2023-03-26T02:48:48.551Z,93175.28
2023-03-26T02:53:50.019Z,93178.91
2023-03-26T02:58:53.177Z,93169.53
2023-03-26T03:03:54.700Z,93167.59
2023-03-26T03:08:56.282Z,93145.41
2023-03-26T03:13:59.098Z,93132.78
2023-03-26T03:19:00.516Z,93122.63
2023-03-26T03:24:02.065Z,93119.13
2023-03-26T03:29:04.902Z,93117.94
2023-03-26T03:34:06.369Z,93100.50
2023-03-26T03:39:07.769Z,93106.75
2023-03-26T03:44:10.529Z,93089.78
2023-03-26T03:49:13.264Z,93092.28
2023-03-26T03:54:14.729Z,93077.50
2023-03-26T03:59:17.513Z,93061.94
2023-03-26T04:04:19.029Z,93044.59
2023-03-26T04:09:20.551Z,93043.91
2023-03-26T04:14:23.367Z,93048.31
2023-03-26T04:19:24.902Z,93052.03
2023-03-26T04:24:26.321Z,93051.75
2023-03-26T04:29:34.345Z,93036.56
2023-03-26T04:34:35.828Z,93033.16
2023-03-26T04:39:37.383Z,93028.91
2023-03-26T04:44:40.293Z,93046.00
2023-03-26T04:49:41.889Z,93027.31
2023-03-26T04:54:45.019Z,93027.88
2023-03-26T04:59:47.835Z,93036.19
2023-03-26T05:04:49.261Z,93024.38
2023-03-26T05:09:50.871Z,93009.84
2023-03-26T05:14:53.660Z,92994.75
2023-03-26T05:19:55.116Z,92997.72
2023-03-26T05:24:56.575Z,92990.94
2023-03-26T05:30:02.081Z,92995.91
2023-03-26T05:35:03.980Z,92984.63
2023-03-26T05:40:07.363Z,92969.13
2023-03-26T05:45:12.926Z,92977.50
2023-03-26T05:50:14.422Z,92976.41
2023-03-26T05:55:16.117Z,92961.66
2023-03-26T06:00:18.990Z,92950.59
2023-03-26T06:05:20.568Z,92944.13
2023-03-26T06:10:22.012Z,92931.63
2023-03-26T06:15:24.823Z,92922.19
2023-03-26T06:20:26.370Z,92914.31
2023-03-26T06:25:27.810Z,92919.91
2023-03-26T06:30:30.567Z,92909.78
2023-03-26T06:35:32.451Z,92902.94
2023-03-26T06:40:34.512Z,92893.22
2023-03-26T06:45:37.504Z,92884.63
2023-03-26T06:50:38.967Z,92873.59
2023-03-26T06:55:40.464Z,92854.38
2023-03-26T07:00:43.445Z,92848.66
2023-03-26T07:05:44.911Z,92840.00
2023-03-26T07:10:46.539Z,92833.53
2023-03-26T07:15:49.497Z,92833.97
2023-03-26T07:20:51.482Z,92821.13
2023-03-26T07:25:53.506Z,92804.34
2023-03-26T07:31:16.194Z,92793.75
2023-03-26T07:36:25.741Z,92783.38
2023-03-26T07:41:35.254Z,92788.84
2023-03-26T07:46:38.714Z,92777.31
2023-03-26T07:51:40.767Z,92767.84
2023-03-26T07:56:48.961Z,92763.13
2023-03-26T08:02:04.771Z,92757.53
2023-03-26T08:07:15.711Z,92764.09
2023-03-26T08:12:24.369Z,92744.94
2023-03-26T08:17:32.868Z,92741.16
2023-03-26T08:22:38.024Z,92747.34
2023-03-26T08:27:41.899Z,92744.16
2023-03-26T08:32:52.973Z,92725.59
2023-03-26T08:37:54.623Z,92720.19
2023-03-26T08:43:40.137Z,92715.47
2023-03-26T08:49:11.492Z,92723.13
2023-03-26T08:54:52.586Z,92706.94
2023-03-26T09:00:33.868Z,92715.28
2023-03-26T09:06:04.757Z,92696.66
2023-03-26T09:11:45.530Z,92707.84
2023-03-26T09:17:14.462Z,92702.97
2023-03-26T09:22:51.410Z,92696.41
2023-03-26T09:28:29.544Z,92713.66
2023-03-26T09:33:54.272Z,92739.50
2023-03-26T09:39:02.607Z,92737.38
2023-03-26T09:44:39.008Z,92747.00
2023-03-26T09:49:49.497Z,92702.34
2023-03-26T09:55:05.610Z,92693.72
2023-03-26T10:00:22.619Z,92680.09
2023-03-26T10:05:43.314Z,92707.16
2023-03-26T10:16:06.155Z,92688.72
2023-03-26T10:21:19.264Z,92675.53
2023-03-26T10:27:08.442Z,92667.59
2023-03-26T10:32:22.529Z,92668.34
2023-03-26T10:37:36.961Z,92653.25
2023-03-26T10:42:55.085Z,92651.72
2023-03-26T10:48:26.344Z,92635.66
2023-03-26T10:53:37.130Z,92633.34
2023-03-26T10:58:49.361Z,92628.22
2023-03-26T11:03:55.078Z,92634.81
2023-03-26T11:09:05.534Z,92687.94
2023-03-26T11:14:24.421Z,92717.13
2023-03-26T11:19:40.872Z,92650.88
2023-03-26T11:25:02.026Z,92649.34
2023-03-26T11:30:16.796Z,92646.19
2023-03-26T11:35:39.622Z,92644.59
2023-03-26T11:40:45.910Z,92659.91
2023-03-26T11:45:50.544Z,92660.34
2023-03-26T11:50:58.250Z,92681.72
2023-03-26T11:56:01.715Z,92697.59
2023-03-26T12:01:05.310Z,92703.44
2023-03-26T12:06:22.802Z,92718.47
2023-03-26T12:11:26.542Z,92686.63
2023-03-26T12:16:28.405Z,92610.66
2023-03-26T12:21:44.671Z,92621.13
2023-03-26T12:26:46.286Z,92620.16
2023-03-26T12:31:55.789Z,92596.34
2023-03-26T12:36:58.818Z,92590.94
2023-03-26T12:44:44.553Z,92605.03
2023-03-26T12:47:58.925Z,92614.28
2023-03-26T12:53:00.374Z,92610.47
2023-03-26T12:58:15.435Z,92601.16
2023-03-26T13:03:29.966Z,92578.16
2023-03-26T13:08:55.568Z,92577.13
2023-03-26T13:14:21.766Z,92563.88
2023-03-26T13:19:29.122Z,92545.56
2023-03-26T13:24:43.806Z,92557.38
2023-03-26T13:29:56.465Z,92549.56
2023-03-26T13:35:10.436Z,92546.91
2023-03-26T13:40:26.171Z,92536.09
2023-03-26T13:45:42.645Z,92524.06
2023-03-26T13:50:52.272Z,92518.88
2023-03-26T13:55:57.869Z,92508.91
2023-03-26T14:01:05.590Z,92496.28
2023-03-26T14:06:12.712Z,92492.53
2023-03-26T14:11:20.920Z,92489.38
2023-03-26T14:16:24.926Z,92493.06
2023-03-26T14:21:44.394Z,92486.75
2023-03-26T14:27:09.098Z,92475.94
2023-03-26T14:32:37.565Z,92458.13
2023-03-26T14:37:54.842Z,92451.03
2023-03-26T14:43:43.924Z,92451.94
2023-03-26T14:49:22.855Z,92452.44
2023-03-26T14:54:27.058Z,92458.31
2023-03-26T14:59:56.706Z,92463.50
2023-03-26T15:05:35.123Z,92458.28
2023-03-26T15:11:01.143Z,92462.97
2023-03-26T15:16:30.103Z,92479.78
2023-03-26T15:22:14.625Z,92472.63
2023-03-26T15:27:33.962Z,92489.75
2023-03-26T15:33:13.827Z,92482.88
2023-03-26T15:38:53.188Z,92482.19
2023-03-26T15:44:26.276Z,92484.75
2023-03-26T15:49:40.150Z,92505.28
2023-03-26T15:54:52.095Z,92486.22
2023-03-26T16:00:05.868Z,92474.97
2023-03-26T16:05:27.364Z,92481.88
2023-03-26T16:10:39.596Z,92487.63
2023-03-26T16:15:41.805Z,92497.84
2023-03-26T16:20:46.683Z,92540.47
2023-03-26T16:26:00.508Z,92539.44
2023-03-26T16:31:23.470Z,92544.38
2023-03-26T16:36:44.279Z,92555.00
2023-03-26T16:42:06.581Z,92559.78
2023-03-26T16:47:19.175Z,92573.84
2023-03-26T16:52:40.714Z,92572.00
2023-03-26T16:57:48.676Z,92593.63
2023-03-26T17:02:57.207Z,92595.66
2023-03-26T17:08:05.058Z,92597.75
2023-03-26T17:13:08.872Z,92591.16
2023-03-26T17:18:32.100Z,92596.63
2023-03-26T17:23:55.196Z,92600.06
2023-03-26T17:29:16.431Z,92596.41
2023-03-26T17:34:41.422Z,92612.00
2023-03-26T17:40:36.995Z,92615.81
2023-03-26T17:45:41.368Z,92612.84
2023-03-26T17:50:50.658Z,92613.41
2023-03-26T17:55:52.695Z,92605.78
2023-03-26T18:01:04.055Z,92598.88
2023-03-26T18:06:09.215Z,92598.00
2023-03-26T18:11:25.941Z,92595.00
2023-03-26T18:16:33.676Z,92591.81
2023-03-26T18:21:36.968Z,92598.28
2023-03-26T18:26:41.728Z,92596.19
2023-03-26T18:31:46.549Z,92595.53
2023-03-26T18:36:58.867Z,92609.00
2023-03-26T18:42:00.558Z,92612.59
2023-03-26T18:47:06.807Z,92605.06
2023-03-26T18:52:13.303Z,92612.94
2023-03-26T18:57:21.574Z,92613.44
2023-03-26T19:02:25.303Z,92620.75
2023-03-26T19:07:27.128Z,92615.94
2023-03-26T19:12:30.796Z,92617.69
2023-03-26T19:17:40.295Z,92612.59
2023-03-26T19:22:42.094Z,92621.28
2023-03-26T19:27:44.631Z,92616.47
2023-03-26T19:32:54.304Z,92618.28
2023-03-26T19:37:55.978Z,92609.81
2023-03-26T19:42:57.569Z,92624.50
2023-03-26T19:48:13.833Z,92605.72
2023-03-26T19:53:21.204Z,92599.34
2023-03-26T19:58:22.881Z,92600.25
2023-03-26T20:03:29.348Z,92602.34
2023-03-26T20:08:30.976Z,92598.34
2023-03-26T20:13:32.505Z,92591.47
2023-03-26T20:18:35.457Z,92598.28
2023-03-26T20:23:36.944Z,92607.59
2023-03-26T20:28:47.410Z,92606.31
2023-03-26T20:33:52.803Z,92606.69
2023-03-26T20:38:54.389Z,92599.06
2023-03-26T20:43:55.949Z,92585.69
2023-03-26T20:48:59.000Z,92596.44
2023-03-26T20:54:00.552Z,92599.34
2023-03-26T20:59:10.363Z,92591.72
2023-03-26T21:04:14.281Z,92600.59
2023-03-26T21:09:18.918Z,92606.41
2023-03-26T21:14:23.852Z,92604.97
2023-03-26T21:19:27.265Z,92601.94
2023-03-26T21:24:40.225Z,92605.72
2023-03-26T21:29:42.410Z,92616.41
2023-03-26T21:34:55.455Z,92613.28
2023-03-26T21:39:59.988Z,92608.63
2023-03-26T21:45:02.064Z,92615.34
2023-03-26T21:50:06.957Z,92613.44
2023-03-26T21:55:10.783Z,92618.44
2023-03-26T22:00:14.342Z,92608.00
2023-03-26T22:05:19.418Z,92613.25
2023-03-26T22:10:21.119Z,92595.94
2023-03-26T22:15:22.926Z,92608.06
2023-03-26T22:20:25.698Z,92596.22
2023-03-26T22:25:27.352Z,92614.25
2023-03-26T22:30:28.972Z,92600.13
2023-03-26T22:35:31.883Z,92597.00
2023-03-26T22:40:33.376Z,92611.25
2023-03-26T22:45:34.819Z,92610.25
2023-03-26T22:50:37.638Z,92606.06
2023-03-26T22:55:39.109Z,92602.22
2023-03-26T23:00:40.547Z,92602.09
2023-03-26T23:05:43.413Z,92606.75
2023-03-26T23:10:44.838Z,92611.03
2023-03-26T23:15:48.684Z,92599.06
2023-03-26T23:20:52.631Z,92587.41
2023-03-26T23:25:54.208Z,92604.59
2023-03-26T23:30:56.860Z,92602.03
2023-03-26T23:36:00.055Z,92613.94
2023-03-26T23:41:01.943Z,92618.41
2023-03-26T23:46:03.491Z,92620.97
2023-03-26T23:51:07.019Z,92632.84
2023-03-26T23:56:09.384Z,92636.31
